Terminal Aerodrome Forecast
Issued by NWS Mt. Holly, NJ

Home | Current Version | Previous Version | Text Only | Print | Product List | Glossary On
Versions: 1 2 3 4 5 6 7 8 9 10 11 12 13 14 15 16 17 18 19 20 21
000
FTUS41 KPHI 191100
TAFACY
TAF
KACY 191136Z 1912/2012 VRB03KT P6SM BKN250
     FM191400 32005KT P6SM SCT250
     FM191700 01008G15KT P6SM SCT250
     FM192200 04008KT P6SM SCT250=

USA.gov is the U.S. government's official web portal to all federal, state and local government web resources and services.